Terminal Aerodrome Forecast
Issued by NWS Cleveland, OH

Home | Current Version | Previous Version | Text Only | Print | Product List | Glossary On
Versions: 1 2 3 4 5 6 7 8 9 10 11 12 13 14
401
FTUS41 KCLE 170525
TAFYNG
TAF
KYNG 170525Z 1706/1806 14006KT P6SM VCSH SCT008 OVC012
     FM170800 14008KT 4SM -RA BR OVC008
      TEMPO 1708/1712 2SM -RA BR OVC004
     FM171200 16010KT 4SM -RA BR SCT008 OVC015
     FM172100 24012G20KT 5SM BR OVC015=

USA.gov is the U.S. government's official web portal to all federal, state and local government web resources and services.